This is the latest recevied weather packets stored in our database for station/object K4BHH. If no packets are shown the sender has not sent any weather packets the latest 10 day(s).
| Time | Temp. | Humidity | Pressure | Rain* | Wind** | Luminosity | Snow |
|---|---|---|---|---|---|---|---|
| 1777286641 | 18.33° C | 81% | 1015.2 hPa | 0 mm | - | - | - |
| 1777284237 | 18.33° C | 79% | 1015.2 hPa | 0 mm | - | - | - |
| 1777282404 | 15° C | 88% | 1015.2 hPa | 0 mm | - | - | - |
| 1777281203 | 13.89° C | 93% | 1015.2 hPa | 0 mm | - | - | - |
| 1777280602 | 14.44° C | 93% | 1015.6 hPa | 0 mm | - | - | - |
| 1777277565 | 15° C | 92% | 1014.9 hPa | 0 mm | - | - | - |
| 1777272719 | 15.56° C | 90% | 1014.9 hPa | 0 mm | - | - | - |
| 1777271517 | 15° C | 92% | 1014.6 hPa | 0 mm | - | - | - |
| 1777270916 | 15° C | 91% | 1014.6 hPa | 0 mm | - | - | - |
| 1777264844 | 16.67° C | 87% | 1014.6 hPa | 0 mm | - | - | - |
| 1777262440 | 16.67° C | 83% | 1014.2 hPa | 0 mm | - | - | - |
| 1777259435 | 17.22° C | 83% | 1013.9 hPa | 0 mm | - | - | - |
| 1777257633 | 17.22° C | 80% | 1013.5 hPa | 0 mm | - | - | - |
| 1777252824 | 20.56° C | 72% | 1013.2 hPa | 0 mm | - | - | - |
| 1777252223 | 21.11° C | 67% | 1012.9 hPa | 0 mm | - | - | - |
| 1777250420 | 22.78° C | 60% | 1012.5 hPa | 0 mm | - | - | - |
| 1777248617 | 25° C | 52% | 1012.2 hPa | 0 mm | - | - | - |
| 1777247416 | 26.11° C | 42% | 1012.2 hPa | 0 mm | - | - | - |
| 1777246814 | 27.22° C | 40% | 1011.9 hPa | 0 mm | - | - | - |
| 1777245012 | 27.78° C | 32% | 1011.9 hPa | 0 mm | - | - | - |
| 1777241944 | 27.78° C | 32% | 1011.5 hPa | 0 mm | - | - | - |
| 1777233375 | 26.67° C | 37% | 1012.2 hPa | 0 mm | - | - | - |
| 1777228535 | 25.56° C | 51% | 1012.9 hPa | 0 mm | - | - | - |
| 1777227334 | 25° C | 53% | 1012.9 hPa | 0 mm | - | - | - |
| 1777226101 | 25° C | 53% | 1013.2 hPa | 0 mm | - | - | - |
* Rain latest hour (hover to see other rain measurements)
** Current wind speed in m/s (hover to see current wind gust speed)